Tropical Cyclones
[Index]
Main Index Home Page Stock Weather Photos Extreme Storms Discussion Storm News and Storm Chasing Reports Tropical Cyclones / Hurricanes / Typhoons Weather Data and Links Wild Fires / Bushfires Weather Observation Techniques Weather Picture Catalogue Tornado Pictures and Reports Stock Video Footage and DVDs for sale
Season 2004-2005 Tropical Cyclone AROLA Track Map
Season 2004-2005 Summaries (Operational Data): [AU] [SIO] [SPAC] [SH]
<<- Previous TC | 2004-2005 Season | Next TC ->>

click for intensity scale information  Lat/long Grid: Show Hide

 Date Labels: Show Hide

Operational Tropical Cyclone Data : JTWC Advisories

Name: AROLA
Number: 0503

07 Nov 2004 06:00 UTC to 13 Nov 2004 12:00 UTC

    date/time    lat    long     hPa   cat  kts
2004-11-07 06    6.2    83.1    1004         15          
2004-11-07 12    8.6    82.5    1002         15          
2004-11-07 18    9.0    81.5    1002         25          
2004-11-08 00    9.2    80.0    1000         25          
2004-11-08 06    9.7    79.2     997         30          
2004-11-08 12   10.2    78.6     990    1    45          
2004-11-08 18   10.6    78.1     978    2    60          
2004-11-09 00   10.9    77.4     976    2    60          
2004-11-09 06   11.0    76.7     976    2    60          
2004-11-09 12   10.9    75.9     976    2    60          
2004-11-09 18   10.3    75.4     976    2    55          
2004-11-10 00   10.3    74.9     976    2    55          
2004-11-10 06   10.8    75.2     985    2    50          
2004-11-10 12   11.0    74.4     988    1    45          
2004-11-10 18   11.0    74.0     991    1    40          
2004-11-11 00   11.0    73.8     990    1    40          
2004-11-11 06   11.1    74.0     990    1    40          
2004-11-11 12   11.4    73.6     994    1    35          
2004-11-11 18   11.7    73.2     996    1    35          
2004-11-12 00   11.9    73.2     996    1    35          
2004-11-12 06   12.1    73.1     997         30          
2004-11-12 12   12.6    72.1     998         30          
2004-11-12 18   13.0    70.2     999         30          
2004-11-13 00   12.7    69.8    1000         25          
2004-11-13 06   13.0    69.6    1001         25          
2004-11-13 12   13.1    68.7    1002         25          
Winds are 10-min average.

Tropical cyclone tracks developed by Michael Bath using operational warnings and advisories and Google Maps.


[Australian Severe Weather index] [Copyright Notice] [Email Contacts] [Search This Site] [Privacy Policy]
Document: tropical_cyclone_arola.htm Updated: 28 May 2013